Tollville, Arkansas
Current Conditions -  °F | °C
As of 9:15 AM on Thursday 18 Dec 2014 (Local Time) from KSGT Reporting Station
Overcast Overcast  
Wind Chill: 35°   Ceiling: 600
Heat Index: 39°   Visibility: 3mi
Dew Point: 36°   Wind: 6mph
Humidity: 87%   Direction: 50°NE
Pressure: 30.26"   Gusts: NA
Location:  34.7129°N, 91.5513°W
Report Text: KSGT 181515Z AUTO 05005KT 3SM OVC006 04/02 A3026 RMK AO1
Loading
Personal Weather Stations






























Interactive Weather Map New forecast layout! Learn more

10-Day Weather Forecast

Advertisements
Track Severe Weather on mobile